createdAt,value
2023-03-29T00:02:33.809Z,99198.55
2023-03-29T00:12:41.337Z,99191.05
2023-03-29T00:22:48.619Z,99180.27
2023-03-29T00:43:02.453Z,99167.70
2023-03-29T00:53:14.176Z,99168.55
2023-03-29T01:03:27.516Z,99165.02
2023-03-29T01:13:34.830Z,99159.45
2023-03-29T01:24:09.365Z,99154.03
2023-03-29T01:34:18.402Z,99145.45
2023-03-29T01:44:30.459Z,99141.46
2023-03-29T01:54:42.190Z,99133.23
2023-03-29T02:04:54.698Z,99128.36
2023-03-29T02:15:01.943Z,99132.95
2023-03-29T02:25:08.728Z,99134.56
2023-03-29T02:35:19.164Z,99138.26
2023-03-29T02:45:28.014Z,99138.91
2023-03-29T02:55:37.002Z,99143.10
2023-03-29T03:05:43.854Z,99141.86
2023-03-29T03:15:55.041Z,99144.46
2023-03-29T03:26:02.299Z,99141.77
2023-03-29T03:36:11.081Z,99136.68
2023-03-29T03:46:19.301Z,99136.52
2023-03-29T03:56:30.075Z,99140.06
2023-03-29T04:06:37.505Z,99138.38
2023-03-29T04:16:43.257Z,99138.41
2023-03-29T04:26:50.336Z,99135.80
2023-03-29T04:36:58.942Z,99139.52
2023-03-29T04:47:06.104Z,99143.16
2023-03-29T04:57:13.414Z,99150.23
2023-03-29T05:07:20.804Z,99152.08
2023-03-29T05:17:28.152Z,99142.85
2023-03-29T05:27:36.070Z,99138.75
2023-03-29T05:37:43.124Z,99135.00
2023-03-29T05:47:50.304Z,99133.64
2023-03-29T05:57:57.713Z,99128.52
2023-03-29T06:08:05.753Z,99122.89
2023-03-29T06:18:12.955Z,99124.16
2023-03-29T06:28:21.012Z,99116.79
2023-03-29T06:38:27.103Z,99123.40
2023-03-29T06:48:34.102Z,99122.67
2023-03-29T06:58:41.264Z,99123.59
2023-03-29T07:08:51.090Z,99116.05
2023-03-29T07:18:58.844Z,99113.13
2023-03-29T07:29:06.531Z,99115.48
2023-03-29T07:49:22.279Z,99103.96
2023-03-29T07:59:29.797Z,99104.59
2023-03-29T08:09:37.703Z,99108.48
2023-03-29T08:19:51.054Z,99109.05
2023-03-29T08:40:08.063Z,99092.64
2023-03-29T08:50:16.231Z,99082.06
2023-03-29T09:00:27.212Z,99079.09
2023-03-29T09:10:39.706Z,99064.05
2023-03-29T09:20:45.312Z,99056.50
2023-03-29T09:30:51.479Z,99045.48
2023-03-29T09:41:01.928Z,99039.19
2023-03-29T09:51:11.748Z,99029.58
2023-03-29T10:01:19.524Z,99030.08
2023-03-29T10:11:33.149Z,99024.08
2023-03-29T10:21:41.231Z,99024.48
2023-03-29T10:31:48.282Z,99014.25
2023-03-29T10:41:53.937Z,99011.63
2023-03-29T10:52:02.309Z,99003.11
2023-03-29T11:02:25.893Z,98989.59
2023-03-29T11:12:31.446Z,98972.20
2023-03-29T11:22:38.936Z,98963.02
2023-03-29T11:32:47.979Z,98942.05
2023-03-29T11:42:58.866Z,98941.08
2023-03-29T11:53:07.371Z,98930.60
2023-03-29T12:03:22.720Z,98915.44
2023-03-29T12:13:32.573Z,98902.27
2023-03-29T12:23:42.521Z,98893.60
2023-03-29T12:34:16.495Z,98880.28
2023-03-29T12:44:24.879Z,98867.70
2023-03-29T12:54:32.699Z,98856.52
2023-03-29T13:04:37.694Z,98848.98
2023-03-29T13:25:01.517Z,98844.39
2023-03-29T13:35:16.004Z,98833.55
2023-03-29T13:55:33.636Z,98826.89
2023-03-29T14:05:49.312Z,98815.00
2023-03-29T14:15:57.414Z,98806.14
2023-03-29T14:26:08.017Z,98794.41
2023-03-29T14:36:19.069Z,98786.75
2023-03-29T14:46:27.580Z,98780.95
2023-03-29T14:56:35.956Z,98775.33
2023-03-29T15:06:43.962Z,98765.80
2023-03-29T15:16:51.589Z,98758.31
2023-03-29T15:27:05.633Z,98755.16
2023-03-29T15:37:11.989Z,98746.48
2023-03-29T15:47:19.209Z,98734.71
2023-03-29T15:57:26.936Z,98731.61
2023-03-29T16:07:34.343Z,98723.02
2023-03-29T16:17:42.029Z,98723.02
2023-03-29T16:27:49.786Z,98716.27
2023-03-29T16:37:57.538Z,98700.79
2023-03-29T16:48:05.245Z,98706.92
2023-03-29T16:58:13.530Z,98704.49
2023-03-29T17:08:22.001Z,98700.52
2023-03-29T17:18:29.732Z,98705.79
2023-03-29T17:28:37.160Z,98697.55
2023-03-29T17:38:44.329Z,98710.84
2023-03-29T17:48:52.229Z,98721.42
2023-03-29T17:58:59.555Z,98733.18
2023-03-29T18:09:08.042Z,98729.42
2023-03-29T18:19:14.261Z,98736.89
2023-03-29T18:29:21.952Z,98740.37
2023-03-29T18:39:28.577Z,98743.52
2023-03-29T18:49:36.977Z,98745.45
2023-03-29T18:59:44.185Z,98745.35
2023-03-29T19:09:51.262Z,98736.33
2023-03-29T19:19:58.676Z,98744.43
2023-03-29T19:30:06.959Z,98748.02
2023-03-29T19:40:13.955Z,98745.58
2023-03-29T19:50:19.386Z,98720.86
2023-03-29T20:00:24.750Z,98706.16
2023-03-29T20:10:32.127Z,98698.64
2023-03-29T20:20:39.292Z,98688.23
2023-03-29T20:30:51.298Z,98698.80
2023-03-29T20:40:59.221Z,98697.55
2023-03-29T20:51:04.618Z,98700.39
2023-03-29T21:01:12.637Z,98698.24
2023-03-29T21:11:21.158Z,98685.93
2023-03-29T21:21:29.726Z,98676.12
2023-03-29T21:31:37.757Z,98661.98
2023-03-29T21:41:45.067Z,98661.85
2023-03-29T21:51:52.654Z,98663.06
2023-03-29T22:02:00.152Z,98662.33
2023-03-29T22:22:16.534Z,98641.14
2023-03-29T22:32:23.904Z,98619.61
2023-03-29T22:42:31.798Z,98612.64
2023-03-29T22:52:39.012Z,98611.72
2023-03-29T23:02:46.163Z,98606.67
2023-03-29T23:12:53.941Z,98603.30
2023-03-29T23:23:01.548Z,98596.99
2023-03-29T23:33:10.593Z,98596.15
2023-03-29T23:43:18.278Z,98590.45
2023-03-29T23:53:25.757Z,98581.49
